PWSweather.com
Personal Weather Stations
Station Observations
SHAHALMS1
Eftra, Falkenberg, HA

EftraFalkenberg, HA

Lat: 56.85, Lon: 12.65

Elevation: 140

Station Type:

http://hem.passagen.se/risarp101

High Low Average
Temperature 75.9°F24.4°C 66.6°F19.2°C 70.8°F21.6°C
Dew Point 65.4°F18.6°C 50.4°F10.2°C 56.9°F13.8°C
Winds 8.4 mph 13.5 kmh Calm Calm 3.0 mph SSW4.8 kmh SSW
Wind Gusts 12.2 mph19.6 kmh -- 6.0 mph9.7 kmh
Humidity 87% 43% 63%
Pressure 30.01 in1016.3 mb 29.68 in1005.1 mb -
Precipitation 0.00 in0.0 mm - -
Hour Temp Dew Point Humidity Winds Wind Gusts Pressure Precip Precip Rate Daily Precip Total
12:00 AM 69.6°F20.9°C 65.2°F18.4°C 86% 1.5 mph S2.4 kmh S 2.1 mph3.4 kmh 29.83 in1010.2 mb 0.00 in0.0 mm 0.00 in0.0 mm 0.00 in0.0 mm
12:15 AM 69.4°F20.8°C 65.1°F18.4°C 86% 2.6 mph W4.2 kmh W 3.6 mph5.8 kmh 29.86 in1011.2 mb 0.00 in0.0 mm 0.00 in0.0 mm 0.00 in0.0 mm
12:30 AM 69.4°F20.8°C 65.4°F18.6°C 87% 1.3 mph W2.1 kmh W 4.3 mph6.9 kmh 29.83 in1010.2 mb 0.00 in0.0 mm 0.00 in0.0 mm 0.00 in0.0 mm
12:45 AM 69.4°F20.8°C 65.4°F18.6°C 87% 1.6 mph W2.6 kmh W 3.2 mph5.1 kmh 29.86 in1011.2 mb 0.00 in0.0 mm 0.00 in0.0 mm 0.00 in0.0 mm
01:00 AM 69.4°F20.8°C 65.1°F18.4°C 86% 6.7 mph W10.8 kmh W 9.3 mph15.0 kmh 29.86 in1011.2 mb 0.00 in0.0 mm 0.00 in0.0 mm 0.00 in0.0 mm
01:15 AM 69.3°F20.7°C 64.6°F18.1°C 85% 2.7 mph W4.3 kmh W 10.4 mph16.7 kmh 29.86 in1011.2 mb 0.00 in0.0 mm 0.00 in0.0 mm 0.00 in0.0 mm
01:30 AM 69.3°F20.7°C 64.6°F18.1°C 85% 8.4 mph NW13.5 kmh NW 10.4 mph16.7 kmh 29.86 in1011.2 mb 0.00 in0.0 mm 0.00 in0.0 mm 0.00 in0.0 mm
01:45 AM 69.1°F20.6°C 64.0°F17.8°C 84% 8.4 mph NW13.5 kmh NW 10.4 mph16.7 kmh 29.86 in1011.2 mb 0.00 in0.0 mm 0.00 in0.0 mm 0.00 in0.0 mm
02:00 AM 68.7°F20.4°C 63.7°F17.6°C 84% 8.4 mph NW13.5 kmh NW 10.4 mph16.7 kmh 29.89 in1012.2 mb 0.00 in0.0 mm 0.00 in0.0 mm 0.00 in0.0 mm
02:15 AM 68.5°F20.3°C 63.5°F17.5°C 84% 8.4 mph NW13.5 kmh NW 10.4 mph16.7 kmh 29.83 in1010.2 mb 0.00 in0.0 mm 0.00 in0.0 mm 0.00 in0.0 mm
02:30 AM 68.4°F20.2°C 63.3°F17.4°C 84% 8.4 mph NW13.5 kmh NW 10.4 mph16.7 kmh 29.86 in1011.2 mb 0.00 in0.0 mm 0.00 in0.0 mm 0.00 in0.0 mm
02:45 AM 68.4°F20.2°C 63.3°F17.4°C 84% 8.4 mph NW13.5 kmh NW 10.4 mph16.7 kmh 29.86 in1011.2 mb 0.00 in0.0 mm 0.00 in0.0 mm 0.00 in0.0 mm
03:00 AM 68.2°F20.1°C 63.2°F17.3°C 84% 1.7 mph W2.7 kmh W 2.1 mph3.4 kmh 29.83 in1010.2 mb 0.00 in0.0 mm 0.00 in0.0 mm 0.00 in0.0 mm
03:15 AM 68.0°F20.0°C 62.6°F17.0°C 83% 3.1 mph W5.0 kmh W 4.3 mph6.9 kmh 29.86 in1011.2 mb 0.00 in0.0 mm 0.00 in0.0 mm 0.00 in0.0 mm
03:30 AM 67.8°F19.9°C 62.5°F16.9°C 83% 3.5 mph W5.6 kmh W 4.3 mph6.9 kmh 29.86 in1011.2 mb 0.00 in0.0 mm 0.00 in0.0 mm 0.00 in0.0 mm
03:45 AM 67.5°F19.7°C 62.1°F16.7°C 83% 3.5 mph W5.6 kmh W 4.3 mph6.9 kmh 29.86 in1011.2 mb 0.00 in0.0 mm 0.00 in0.0 mm 0.00 in0.0 mm
04:00 AM 66.9°F19.4°C 61.6°F16.4°C 83% 3.5 mph W5.6 kmh W 4.3 mph6.9 kmh 29.86 in1011.2 mb 0.00 in0.0 mm 0.00 in0.0 mm 0.00 in0.0 mm
04:15 AM 66.7°F19.3°C 61.7°F16.5°C 84% 3.5 mph W5.6 kmh W 4.3 mph6.9 kmh 29.86 in1011.2 mb 0.00 in0.0 mm 0.00 in0.0 mm 0.00 in0.0 mm
04:30 AM 66.6°F19.2°C 61.6°F16.4°C 84% 3.5 mph W5.6 kmh W 4.3 mph6.9 kmh 29.89 in1012.2 mb 0.00 in0.0 mm 0.00 in0.0 mm 0.00 in0.0 mm
04:45 AM 66.6°F19.2°C 61.2°F16.2°C 83% 3.5 mph W5.6 kmh W 4.3 mph6.9 kmh 29.92 in1013.2 mb 0.00 in0.0 mm 0.00 in0.0 mm 0.00 in0.0 mm
05:00 AM 66.6°F19.2°C 60.9°F16.1°C 82% 3.5 mph W5.6 kmh W 4.3 mph6.9 kmh 29.92 in1013.2 mb 0.00 in0.0 mm 0.00 in0.0 mm 0.00 in0.0 mm
05:15 AM 66.6°F19.2°C 60.5°F15.8°C 81% 3.5 mph W5.6 kmh W 4.3 mph6.9 kmh 29.92 in1013.2 mb 0.00 in0.0 mm 0.00 in0.0 mm 0.00 in0.0 mm
05:30 AM 66.7°F19.3°C 60.4°F15.8°C 80% 3.5 mph W5.6 kmh W 4.3 mph6.9 kmh 29.92 in1013.2 mb 0.00 in0.0 mm 0.00 in0.0 mm 0.00 in0.0 mm
05:45 AM 67.1°F19.5°C 60.4°F15.8°C 79% 3.5 mph W5.6 kmh W 4.3 mph6.9 kmh 29.92 in1013.2 mb 0.00 in0.0 mm 0.00 in0.0 mm 0.00 in0.0 mm
06:00 AM 67.3°F19.6°C 60.5°F15.8°C 79% 3.5 mph W5.6 kmh W 4.3 mph6.9 kmh 29.95 in1014.2 mb 0.00 in0.0 mm 0.00 in0.0 mm 0.00 in0.0 mm
06:15 AM 67.5°F19.7°C 60.4°F15.8°C 78% 3.5 mph W5.6 kmh W 4.3 mph6.9 kmh 29.89 in1012.2 mb 0.00 in0.0 mm 0.00 in0.0 mm 0.00 in0.0 mm
06:30 AM 67.6°F19.8°C 60.5°F15.8°C 78% 3.5 mph W5.6 kmh W 4.3 mph6.9 kmh 29.89 in1012.2 mb 0.00 in0.0 mm 0.00 in0.0 mm 0.00 in0.0 mm
06:45 AM 67.8°F19.9°C 60.0°F15.6°C 76% 3.5 mph W5.6 kmh W 4.3 mph6.9 kmh 29.89 in1012.2 mb 0.00 in0.0 mm 0.00 in0.0 mm 0.00 in0.0 mm
07:00 AM 68.2°F20.1°C 60.0°F15.6°C 75% 3.5 mph W5.6 kmh W 4.3 mph6.9 kmh 29.92 in1013.2 mb 0.00 in0.0 mm 0.00 in0.0 mm 0.00 in0.0 mm
07:15 AM 69.4°F20.8°C 60.8°F16.0°C 74% 3.5 mph W5.6 kmh W 4.3 mph6.9 kmh 29.92 in1013.2 mb 0.00 in0.0 mm 0.00 in0.0 mm 0.00 in0.0 mm
07:30 AM 69.4°F20.8°C 60.0°F15.6°C 72% 3.5 mph W5.6 kmh W 4.3 mph6.9 kmh 29.92 in1013.2 mb 0.00 in0.0 mm 0.00 in0.0 mm 0.00 in0.0 mm
07:45 AM 70.2°F21.2°C 59.9°F15.5°C 70% 3.5 mph W5.6 kmh W 4.3 mph6.9 kmh 29.92 in1013.2 mb 0.00 in0.0 mm 0.00 in0.0 mm 0.00 in0.0 mm
08:00 AM 70.3°F21.3°C 59.7°F15.4°C 69% 3.5 mph W5.6 kmh W 4.3 mph6.9 kmh 29.92 in1013.2 mb 0.00 in0.0 mm 0.00 in0.0 mm 0.00 in0.0 mm
08:15 AM 70.3°F21.3°C 59.3°F15.2°C 68% 2.7 mph W4.3 kmh W 6.4 mph10.3 kmh 29.95 in1014.2 mb 0.00 in0.0 mm 0.00 in0.0 mm 0.00 in0.0 mm
08:30 AM 70.9°F21.6°C 59.0°F15.0°C 66% 2.9 mph W4.7 kmh W 6.1 mph9.8 kmh 29.95 in1014.2 mb 0.00 in0.0 mm 0.00 in0.0 mm 0.00 in0.0 mm
08:45 AM 70.9°F21.6°C 59.0°F15.0°C 66% 2.5 mph W4.0 kmh W 8.6 mph13.8 kmh 29.95 in1014.2 mb 0.00 in0.0 mm 0.00 in0.0 mm 0.00 in0.0 mm
09:00 AM 71.2°F21.8°C 58.9°F14.9°C 65% 3.9 mph W6.3 kmh W 10.0 mph16.1 kmh 29.98 in1015.2 mb 0.00 in0.0 mm 0.00 in0.0 mm 0.00 in0.0 mm
09:15 AM 70.9°F21.6°C 58.1°F14.5°C 64% 4.2 mph WNW6.8 kmh WNW 11.8 mph19.0 kmh 29.98 in1015.2 mb 0.00 in0.0 mm 0.00 in0.0 mm 0.00 in0.0 mm
09:30 AM 70.7°F21.5°C 57.5°F14.2°C 63% 3.5 mph NW5.6 kmh NW 11.5 mph18.5 kmh 29.98 in1015.2 mb 0.00 in0.0 mm 0.00 in0.0 mm 0.00 in0.0 mm
09:45 AM 70.9°F21.6°C 57.7°F14.3°C 63% 1.9 mph W3.1 kmh W 8.9 mph14.3 kmh 29.98 in1015.2 mb 0.00 in0.0 mm 0.00 in0.0 mm 0.00 in0.0 mm
10:00 AM 72.3°F22.4°C 58.1°F14.5°C 61% 3.7 mph WSW6.0 kmh WSW 9.3 mph15.0 kmh 29.98 in1015.2 mb 0.00 in0.0 mm 0.00 in0.0 mm 0.00 in0.0 mm
10:15 AM 73.0°F22.8°C 58.3°F14.6°C 60% 4.0 mph WNW6.4 kmh WNW 11.8 mph19.0 kmh 29.98 in1015.2 mb 0.00 in0.0 mm 0.00 in0.0 mm 0.00 in0.0 mm
10:30 AM 72.9°F22.7°C 57.7°F14.3°C 59% 3.6 mph WNW5.8 kmh WNW 9.3 mph15.0 kmh 29.98 in1015.2 mb 0.00 in0.0 mm 0.00 in0.0 mm 0.00 in0.0 mm
10:45 AM 72.7°F22.6°C 57.0°F13.9°C 58% 3.6 mph NW5.8 kmh NW 9.7 mph15.6 kmh 29.98 in1015.2 mb 0.00 in0.0 mm 0.00 in0.0 mm 0.00 in0.0 mm
11:00 AM 72.9°F22.7°C 57.2°F14.0°C 58% 3.8 mph WNW6.1 kmh WNW 9.3 mph15.0 kmh 29.98 in1015.2 mb 0.00 in0.0 mm 0.00 in0.0 mm 0.00 in0.0 mm
11:15 AM 73.2°F22.9°C 57.1°F13.9°C 57% 2.6 mph W4.2 kmh W 10.0 mph16.1 kmh 29.98 in1015.2 mb 0.00 in0.0 mm 0.00 in0.0 mm 0.00 in0.0 mm
11:30 AM 73.2°F22.9°C 56.6°F13.7°C 56% 3.0 mph W4.8 kmh W 12.2 mph19.6 kmh 29.98 in1015.2 mb 0.00 in0.0 mm 0.00 in0.0 mm 0.00 in0.0 mm
11:45 AM 73.8°F23.2°C 56.6°F13.7°C 55% 3.7 mph W6.0 kmh W 8.9 mph14.3 kmh 29.98 in1015.2 mb 0.00 in0.0 mm 0.00 in0.0 mm 0.00 in0.0 mm
12:00 PM 73.8°F23.2°C 56.6°F13.7°C 55% 4.2 mph WNW6.8 kmh WNW 10.4 mph16.7 kmh 29.98 in1015.2 mb 0.00 in0.0 mm 0.00 in0.0 mm 0.00 in0.0 mm
12:15 PM 73.8°F23.2°C 56.1°F13.4°C 54% 3.7 mph W6.0 kmh W 7.9 mph12.7 kmh 29.98 in1015.2 mb 0.00 in0.0 mm 0.00 in0.0 mm 0.00 in0.0 mm
12:30 PM 73.8°F23.2°C 56.1°F13.4°C 54% 3.7 mph W6.0 kmh W 7.9 mph12.7 kmh 29.95 in1014.2 mb 0.00 in0.0 mm 0.00 in0.0 mm 0.00 in0.0 mm
12:45 PM 74.1°F23.4°C 56.4°F13.6°C 54% 3.8 mph WSW6.1 kmh WSW 10.4 mph16.7 kmh 29.98 in1015.2 mb 0.00 in0.0 mm 0.00 in0.0 mm 0.00 in0.0 mm
01:00 PM 73.9°F23.3°C 56.2°F13.4°C 54% 4.5 mph WSW7.2 kmh WSW 11.5 mph18.5 kmh 29.98 in1015.2 mb 0.00 in0.0 mm 0.00 in0.0 mm 0.00 in0.0 mm
01:15 PM 73.8°F23.2°C 55.6°F13.1°C 53% 2.3 mph NNW3.7 kmh NNW 8.9 mph14.3 kmh 29.98 in1015.2 mb 0.00 in0.0 mm 0.00 in0.0 mm 0.00 in0.0 mm
01:30 PM 73.9°F23.3°C 55.7°F13.2°C 53% 4.4 mph WSW7.1 kmh WSW 11.5 mph18.5 kmh 29.98 in1015.2 mb 0.00 in0.0 mm 0.00 in0.0 mm 0.00 in0.0 mm
01:45 PM 74.7°F23.7°C 55.3°F12.9°C 51% 3.4 mph SW5.5 kmh SW 7.2 mph11.6 kmh 30.01 in1016.3 mb 0.00 in0.0 mm 0.00 in0.0 mm 0.00 in0.0 mm
02:00 PM 73.9°F23.3°C 54.7°F12.6°C 51% 4.4 mph NW7.1 kmh NW 11.8 mph19.0 kmh 29.98 in1015.2 mb 0.00 in0.0 mm 0.00 in0.0 mm 0.00 in0.0 mm
02:15 PM 74.1°F23.4°C 54.3°F12.4°C 50% 3.1 mph W5.0 kmh W 7.5 mph12.1 kmh 29.95 in1014.2 mb 0.00 in0.0 mm 0.00 in0.0 mm 0.00 in0.0 mm
02:30 PM 74.3°F23.5°C 53.9°F12.2°C 49% 2.7 mph W4.3 kmh W 10.0 mph16.1 kmh 29.95 in1014.2 mb 0.00 in0.0 mm 0.00 in0.0 mm 0.00 in0.0 mm
02:45 PM 74.8°F23.8°C 53.8°F12.1°C 48% 4.2 mph SW6.8 kmh SW 10.0 mph16.1 kmh 29.95 in1014.2 mb 0.00 in0.0 mm 0.00 in0.0 mm 0.00 in0.0 mm
03:00 PM 75.4°F24.1°C 54.3°F12.4°C 48% 3.7 mph WSW6.0 kmh WSW 9.7 mph15.6 kmh 29.95 in1014.2 mb 0.00 in0.0 mm 0.00 in0.0 mm 0.00 in0.0 mm
03:15 PM 75.4°F24.1°C 53.2°F11.8°C 46% 3.7 mph W6.0 kmh W 8.9 mph14.3 kmh 29.95 in1014.2 mb 0.00 in0.0 mm 0.00 in0.0 mm 0.00 in0.0 mm
03:30 PM 75.4°F24.1°C 52.6°F11.4°C 45% 2.5 mph WSW4.0 kmh WSW 8.9 mph14.3 kmh 29.95 in1014.2 mb 0.00 in0.0 mm 0.00 in0.0 mm 0.00 in0.0 mm
03:45 PM 75.7°F24.3°C 52.9°F11.6°C 45% 1.6 mph WSW2.6 kmh WSW 7.5 mph12.1 kmh 29.92 in1013.2 mb 0.00 in0.0 mm 0.00 in0.0 mm 0.00 in0.0 mm
04:00 PM 75.9°F24.4°C 52.4°F11.3°C 44% 2.8 mph SW4.5 kmh SW 8.6 mph13.8 kmh 29.95 in1014.2 mb 0.00 in0.0 mm 0.00 in0.0 mm 0.00 in0.0 mm
04:15 PM 75.7°F24.3°C 51.6°F10.9°C 43% 2.3 mph WNW3.7 kmh WNW 7.5 mph12.1 kmh 29.92 in1013.2 mb 0.00 in0.0 mm 0.00 in0.0 mm 0.00 in0.0 mm
04:30 PM 75.6°F24.2°C 51.5°F10.8°C 43% 1.0 mph WSW1.6 kmh WSW 6.8 mph10.9 kmh 29.92 in1013.2 mb 0.00 in0.0 mm 0.00 in0.0 mm 0.00 in0.0 mm
04:45 PM 75.4°F24.1°C 51.3°F10.7°C 43% 0.4 mph SE0.6 kmh SE 4.3 mph6.9 kmh 29.92 in1013.2 mb 0.00 in0.0 mm 0.00 in0.0 mm 0.00 in0.0 mm
05:00 PM 75.2°F24.0°C 51.2°F10.7°C 43% 1.5 mph WNW2.4 kmh WNW 8.6 mph13.8 kmh 29.92 in1013.2 mb 0.00 in0.0 mm 0.00 in0.0 mm 0.00 in0.0 mm
05:15 PM 75.2°F24.0°C 51.2°F10.7°C 43% 1.4 mph NW2.3 kmh NW 5.7 mph9.2 kmh 29.92 in1013.2 mb 0.00 in0.0 mm 0.00 in0.0 mm 0.00 in0.0 mm
05:30 PM 74.8°F23.8°C 51.5°F10.8°C 44% 1.0 mph W1.6 kmh W 7.2 mph11.6 kmh 29.92 in1013.2 mb 0.00 in0.0 mm 0.00 in0.0 mm 0.00 in0.0 mm
05:45 PM 75.0°F23.9°C 51.6°F10.9°C 44% Calm Calm -- 29.89 in1012.2 mb 0.00 in0.0 mm 0.00 in0.0 mm 0.00 in0.0 mm
06:00 PM 74.3°F23.5°C 51.0°F10.6°C 44% 0.2 mph NNW0.3 kmh NNW 3.9 mph6.3 kmh 29.89 in1012.2 mb 0.00 in0.0 mm 0.00 in0.0 mm 0.00 in0.0 mm
06:15 PM 73.9°F23.3°C 50.6°F10.3°C 44% Calm Calm -- 29.86 in1011.2 mb 0.00 in0.0 mm 0.00 in0.0 mm 0.00 in0.0 mm
06:30 PM 73.4°F23.0°C 50.8°F10.4°C 45% Calm Calm -- 29.86 in1011.2 mb 0.00 in0.0 mm 0.00 in0.0 mm 0.00 in0.0 mm
06:45 PM 72.7°F22.6°C 50.7°F10.4°C 46% 0.4 mph N0.6 kmh N 4.7 mph7.6 kmh 29.86 in1011.2 mb 0.00 in0.0 mm 0.00 in0.0 mm 0.00 in0.0 mm
07:01 PM 71.8°F22.1°C 51.0°F10.6°C 48% Calm Calm -- 29.86 in1011.2 mb 0.00 in0.0 mm 0.00 in0.0 mm 0.00 in0.0 mm
07:15 PM 70.9°F21.6°C 50.8°F10.4°C 49% Calm Calm -- 29.86 in1011.2 mb 0.00 in0.0 mm 0.00 in0.0 mm 0.00 in0.0 mm
07:30 PM 70.0°F21.1°C 50.5°F10.3°C 50% Calm Calm -- 29.86 in1011.2 mb 0.00 in0.0 mm 0.00 in0.0 mm 0.00 in0.0 mm
07:45 PM 69.4°F20.8°C 50.5°F10.3°C 51% Calm Calm -- 29.83 in1010.2 mb 0.00 in0.0 mm 0.00 in0.0 mm 0.00 in0.0 mm
08:00 PM 68.7°F20.4°C 50.4°F10.2°C 52% Calm Calm -- 29.83 in1010.2 mb 0.00 in0.0 mm 0.00 in0.0 mm 0.00 in0.0 mm
08:15 PM 68.2°F20.1°C 50.4°F10.2°C 53% Calm Calm -- 29.83 in1010.2 mb 0.00 in0.0 mm 0.00 in0.0 mm 0.00 in0.0 mm
08:30 PM 68.0°F20.0°C 50.7°F10.4°C 54% 0.1 mph E0.2 kmh E 1.4 mph2.3 kmh 29.80 in1009.1 mb 0.00 in0.0 mm 0.00 in0.0 mm 0.00 in0.0 mm
08:45 PM 68.2°F20.1°C 50.9°F10.5°C 54% Calm Calm -- 29.77 in1008.1 mb 0.00 in0.0 mm 0.00 in0.0 mm 0.00 in0.0 mm
09:00 PM 68.2°F20.1°C 50.9°F10.5°C 54% Calm Calm -- 29.77 in1008.1 mb 0.00 in0.0 mm 0.00 in0.0 mm 0.00 in0.0 mm
09:15 PM 68.2°F20.1°C 51.4°F10.8°C 55% Calm Calm -- 29.80 in1009.1 mb 0.00 in0.0 mm 0.00 in0.0 mm 0.00 in0.0 mm
09:30 PM 68.2°F20.1°C 51.4°F10.8°C 55% Calm Calm -- 29.80 in1009.1 mb 0.00 in0.0 mm 0.00 in0.0 mm 0.00 in0.0 mm
09:45 PM 68.0°F20.0°C 51.7°F10.9°C 56% Calm Calm -- 29.77 in1008.1 mb 0.00 in0.0 mm 0.00 in0.0 mm 0.00 in0.0 mm
10:00 PM 68.2°F20.1°C 51.9°F11.1°C 56% Calm Calm -- 29.77 in1008.1 mb 0.00 in0.0 mm 0.00 in0.0 mm 0.00 in0.0 mm
10:15 PM 68.4°F20.2°C 52.5°F11.4°C 57% Calm Calm -- 29.74 in1007.1 mb 0.00 in0.0 mm 0.00 in0.0 mm 0.00 in0.0 mm
10:30 PM 68.7°F20.4°C 54.3°F12.4°C 60% Calm Calm -- 29.74 in1007.1 mb 0.00 in0.0 mm 0.00 in0.0 mm 0.00 in0.0 mm
10:45 PM 69.1°F20.6°C 55.1°F12.8°C 61% Calm Calm -- 29.71 in1006.1 mb 0.00 in0.0 mm 0.00 in0.0 mm 0.00 in0.0 mm
11:00 PM 69.3°F20.7°C 55.7°F13.2°C 62% Calm Calm -- 29.71 in1006.1 mb 0.00 in0.0 mm 0.00 in0.0 mm 0.00 in0.0 mm
11:15 PM 69.4°F20.8°C 55.9°F13.3°C 62% Calm Calm -- 29.71 in1006.1 mb 0.00 in0.0 mm 0.00 in0.0 mm 0.00 in0.0 mm
11:30 PM 70.0°F21.1°C 56.4°F13.6°C 62% Calm Calm -- 29.68 in1005.1 mb 0.00 in0.0 mm 0.00 in0.0 mm 0.00 in0.0 mm
11:45 PM 70.9°F21.6°C 57.7°F14.3°C 63% Calm Calm -- 29.74 in1007.1 mb 0.00 in0.0 mm 0.00 in0.0 mm 0.00 in0.0 mm